Главная страница
METAR-TAF:

METAR-TAF

Аэропорты :

Westminster, Мэриленд, США

широта: 39-36-30N, долгота: 077-00-28W, высота над уровнем моря: 240 м

Текущие метеонаблюдения

Эта сводка был подготовлена 36 минут назад, в 15:50 UTC
Ветер 6 Узел от западно-северо-западный
Температура 8°C
Влажность 46%
Давление 1025 hPa
Видимость: 16.1 км
ясное небо

METAR: KDMW 151550Z AUTO 30006KT 10SM CLR 08/M03 A3026 RMK AO2

Время: 11:26 (16:26 UTC)


TAF: отсутствует

Метеонаблюдения и прогнозы для более 4000 аэропортов (сводки METAR и TAF).

Имеющиеся станции представлены на карте желтыми и красными точками.

Чтобы увидеть название станции, наведите на нее мышь.

Затем щелкните, чтобы увидеть метеонаблюдения и метеопрогнозы.

Управление картой: чтобы увеличить масштаб, щелкните зеленые кнопки с черным крестиком; чтобы уменьшить масштаб, щелкните зеленую кнопку с тире; для просмотра соседних карт щелкайте зеленые стрелки.


METAR-TAF: